Weather History for KJWY - October, 2012

Change the Weather History Date:

Sunday, October 14, 2012

  Actual Average (KRBD) Record (KRBD)
Temperature  
Mean Temperature 70 °F -  
Max Temperature 80 °F 75 °F 93 °F (1999)
Min Temperature 60 °F 55 °F 44 °F (1997)
Cooling Degree Days 5    
Growing Degree Days 20 (Base 50)    
Moisture  
Dew Point 55 °F    
Average Humidity 64    
Maximum Humidity 94    
Minimum Humidity 30    
Precipitation  
Precipitation 0.30 in - - ()
Sea Level Pressure  
Sea Level Pressure 30.02 in    
Wind  
Wind Speed 11 mph (WNW)    
Max Wind Speed 23 mph    
Max Gust Speed 31 mph    
Visibility 10 miles    
Events Rain    
Averages and records for this station are not official NWS values.
T = Trace of Precipitation, MM = Missing Value Source: NWS Daily Summary

Daily Weather History Graph

Daily Weather History Graph

Search for Another Location

Airport or City:

Trip Planner

Search our weather history database for the weather conditions in past years. The results will help you decide how hot, cold, wet, or windy it might be!

Date:

Astronomy

Oct. 14, 2012 Rise Set
Actual Time 7:31 AM CDT 6:55 PM CDT
Civil Twilight 7:06 AM CDT 7:20 PM CDT
Nautical Twilight 6:37 AM CDT 7:48 PM CDT
Astronomical Twilight 6:09 AM CDT 8:17 PM CDT
Moon 6:32 AM CDT (10/14) 6:16 PM CDT (10/14)
Length of Visible Light 12h 13m
Length of Day
11h 24m
Waning Crescent, 1% of the Moon is Illuminated
Oct 14
Waning Crescent
Oct 15
New
Oct 21
First Quarter
Oct 29
Full
Nov 6
Last Quarter

Hourly Weather History & Observations

Time (CDT) Temp. Dew Point Humidity Pressure Visibility Wind Dir Wind Speed Gust Speed Precip Events Conditions
12:15 AM 73.4 °F 68.0 °F 83% 29.88 in 10.0 mi South 23.0 mph 31.1 mph N/A   Overcast
12:35 AM 75.2 °F 68.0 °F 78% 29.88 in 10.0 mi South 16.1 mph 26.5 mph N/A   Overcast
12:55 AM 75.2 °F 68.0 °F 78% 29.90 in 10.0 mi South 17.3 mph 25.3 mph N/A   Overcast
1:15 AM 75.2 °F 68.0 °F 78% 29.91 in 10.0 mi South 18.4 mph 26.5 mph N/A   Overcast
1:35 AM 75.2 °F 69.8 °F 83% 29.90 in 10.0 mi South 18.4 mph 27.6 mph N/A   Overcast
1:55 AM 75.2 °F 69.8 °F 83% 29.90 in 10.0 mi South 12.7 mph 27.6 mph N/A   Overcast
2:15 AM 75.2 °F 69.8 °F 83% 29.91 in 10.0 mi South 12.7 mph 20.7 mph N/A   Overcast
2:35 AM 69.8 °F 64.4 °F 83% 29.94 in 10.0 mi WNW 4.6 mph - 0.01 in Rain Rain
2:55 AM 68.0 °F 64.4 °F 88% 29.92 in 2.5 mi South 4.6 mph 16.1 mph 0.30 in Rain Light Rain
3:15 AM 68.0 °F 66.2 °F 94% 29.95 in 10.0 mi South 8.1 mph - N/A   Scattered Clouds
3:35 AM 68.0 °F 66.2 °F 94% 29.94 in 10.0 mi SSW 6.9 mph - N/A   Clear
3:55 AM 68.0 °F 64.4 °F 88% 29.94 in 10.0 mi South 8.1 mph - N/A   Clear
4:35 AM 66.2 °F 62.6 °F 88% 29.93 in 10.0 mi SW 6.9 mph - N/A   Scattered Clouds
4:55 AM 68.0 °F 62.6 °F 83% 29.94 in 10.0 mi SW 6.9 mph - N/A   Scattered Clouds
5:15 AM 66.2 °F 62.6 °F 88% 29.94 in 10.0 mi WSW 3.5 mph - N/A   Scattered Clouds
5:35 AM 64.4 °F 62.6 °F 94% 29.94 in 10.0 mi West 4.6 mph - N/A   Clear
5:55 AM 64.4 °F 62.6 °F 94% 29.95 in 10.0 mi NW 3.5 mph - N/A   Clear
6:15 AM 64.4 °F 62.6 °F 94% 29.95 in 10.0 mi West 5.8 mph - N/A   Clear
6:35 AM 64.4 °F 60.8 °F 88% 29.97 in 10.0 mi WNW 4.6 mph - N/A   Clear
6:55 AM 62.6 °F 60.8 °F 94% 29.98 in 10.0 mi West 5.8 mph - N/A   Clear
7:15 AM 62.6 °F 60.8 °F 94% 29.99 in 10.0 mi WNW 5.8 mph - N/A   Clear
7:35 AM 62.6 °F 59.0 °F 88% 30.01 in 10.0 mi West 4.6 mph - N/A   Clear
7:55 AM 62.6 °F 59.0 °F 88% 30.01 in 10.0 mi WNW 4.6 mph - N/A   Clear
8:15 AM 60.8 °F 57.2 °F 88% 30.02 in 10.0 mi Calm Calm - N/A   Clear
9:15 AM 64.4 °F 53.6 °F 68% 30.05 in 10.0 mi West 4.6 mph - N/A   Clear
9:35 AM 66.2 °F 51.8 °F 60% 30.05 in 10.0 mi NW 10.4 mph - N/A   Clear
9:55 AM 68.0 °F 50.0 °F 52% 30.06 in 10.0 mi WNW 10.4 mph - N/A   Clear
10:15 AM 69.8 °F 51.8 °F 53% 30.06 in 10.0 mi WNW 5.8 mph - N/A   Clear
10:35 AM 69.8 °F 50.0 °F 49% 30.06 in 10.0 mi NW 9.2 mph - N/A   Clear
10:55 AM 71.6 °F 50.0 °F 46% 30.07 in 10.0 mi NW 10.4 mph - N/A   Clear
11:15 AM 71.6 °F 48.2 °F 43% 30.07 in 10.0 mi NW 11.5 mph 16.1 mph N/A   Clear
11:35 AM 73.4 °F 50.0 °F 44% 30.07 in 10.0 mi WNW 9.2 mph - N/A   Clear
11:55 AM 75.2 °F 48.2 °F 38% 30.08 in 10.0 mi WNW 6.9 mph - N/A   Clear
12:15 PM 75.2 °F 50.0 °F 41% 30.08 in 10.0 mi NW 11.5 mph - N/A   Clear
12:35 PM 75.2 °F 50.0 °F 41% 30.09 in 10.0 mi NW 6.9 mph - N/A   Clear
1:35 PM 77.0 °F 50.0 °F 39% 30.09 in 10.0 mi WNW 9.2 mph - N/A   Clear
1:55 PM 77.0 °F 50.0 °F 39% 30.08 in 10.0 mi NNW 8.1 mph - N/A   Clear
2:15 PM 77.0 °F 50.0 °F 39% 30.07 in 10.0 mi NNW 10.4 mph 16.1 mph N/A   Clear
2:35 PM 77.0 °F 50.0 °F 39% 30.06 in 10.0 mi NNW 9.2 mph - N/A   Clear
2:55 PM 78.8 °F 50.0 °F 36% 30.05 in 10.0 mi NNW 12.7 mph - N/A   Clear
3:15 PM 78.8 °F 50.0 °F 36% 30.05 in 10.0 mi NW 9.2 mph - N/A   Clear
3:55 PM 80.6 °F 46.4 °F 30% 30.05 in 10.0 mi NW 11.5 mph 16.1 mph N/A   Clear
4:35 PM 80.6 °F 46.4 °F 30% 30.05 in 10.0 mi NW 11.5 mph - N/A   Clear
5:55 PM 78.8 °F 46.4 °F 32% 30.05 in 10.0 mi NNW 10.4 mph - N/A   Clear
6:15 PM 77.0 °F 46.4 °F 34% 30.05 in 10.0 mi NNW 9.2 mph - N/A   Clear
6:35 PM 75.2 °F 50.0 °F 41% 30.05 in 10.0 mi NNW 6.9 mph - N/A   Clear
6:55 PM 71.6 °F 51.8 °F 50% 30.05 in 10.0 mi NNW 5.8 mph - N/A   Clear
7:15 PM 69.8 °F 51.8 °F 53% 30.05 in 10.0 mi NNW 5.8 mph - N/A   Clear
7:35 PM 68.0 °F 51.8 °F 56% 30.06 in 10.0 mi NNW 6.9 mph - N/A   Clear
7:55 PM 68.0 °F 51.8 °F 56% 30.06 in 10.0 mi NNW 5.8 mph - N/A   Clear
8:15 PM 66.2 °F 51.8 °F 60% 30.06 in 10.0 mi NNW 5.8 mph - N/A   Clear
8:35 PM 66.2 °F 50.0 °F 56% 30.06 in 10.0 mi NNW 6.9 mph - N/A   Clear
8:55 PM 66.2 °F 50.0 °F 56% 30.08 in 10.0 mi NNW 6.9 mph - N/A   Clear
9:15 PM 66.2 °F 50.0 °F 56% 30.08 in 10.0 mi NNW 8.1 mph - N/A   Clear
9:35 PM 66.2 °F 50.0 °F 56% 30.09 in 10.0 mi NNW 8.1 mph - N/A   Clear
9:55 PM 64.4 °F 50.0 °F 59% 30.09 in 10.0 mi NNW 6.9 mph - N/A   Clear
10:15 PM 64.4 °F 48.2 °F 56% 30.10 in 10.0 mi NW 8.1 mph - N/A   Clear
10:35 PM 66.2 °F 48.2 °F 52% 30.11 in 10.0 mi NNW 6.9 mph - N/A   Clear
10:55 PM 62.6 °F 50.0 °F 63% 30.11 in 10.0 mi NNW 3.5 mph - N/A   Clear
11:15 PM 60.8 °F 50.0 °F 68% 30.11 in 10.0 mi NNW 3.5 mph - N/A   Clear
11:35 PM 62.6 °F 50.0 °F 63% 30.11 in 10.0 mi NNW 3.5 mph - N/A   Clear
11:55 PM 60.8 °F 50.0 °F 68% 30.12 in 10.0 mi NNW 3.5 mph - N/A   Clear